createdAt,value
2019-06-20T00:00:18.814Z,0.00
2019-06-20T00:01:18.806Z,0.00
2019-06-20T00:02:18.804Z,0.00
2019-06-20T00:03:18.797Z,0.00
2019-06-20T00:04:18.795Z,0.00
2019-06-20T00:05:18.756Z,0.00
2019-06-20T00:06:18.751Z,0.00
2019-06-20T00:07:18.749Z,0.00
2019-06-20T00:08:18.732Z,0.00
2019-06-20T00:09:18.778Z,0.00
2019-06-20T00:10:18.738Z,0.00
2019-06-20T00:11:18.693Z,0.00
2019-06-20T00:12:18.681Z,0.00
2019-06-20T00:13:18.670Z,0.00
2019-06-20T00:14:18.663Z,0.00
2019-06-20T00:15:18.916Z,0.00
2019-06-20T00:16:18.638Z,0.00
2019-06-20T00:17:18.656Z,0.00
2019-06-20T00:18:18.630Z,0.00
2019-06-20T00:19:18.605Z,0.00
2019-06-20T00:20:18.596Z,0.00
2019-06-20T00:21:18.587Z,0.00
2019-06-20T00:22:18.574Z,0.00
2019-06-20T00:23:18.572Z,0.00
2019-06-20T00:24:18.554Z,0.00
2019-06-20T00:25:18.546Z,0.00
2019-06-20T00:26:18.536Z,0.00
2019-06-20T00:27:18.534Z,0.00
2019-06-20T00:28:18.504Z,0.00
2019-06-20T00:29:18.507Z,0.00
2019-06-20T00:30:18.483Z,0.00
2019-06-20T00:31:18.471Z,0.00
2019-06-20T00:32:18.496Z,0.00
2019-06-20T00:33:18.466Z,0.00
2019-06-20T00:34:18.440Z,0.00
2019-06-20T00:35:18.430Z,0.00
2019-06-20T00:36:18.415Z,0.00
2019-06-20T00:37:18.409Z,0.00
2019-06-20T00:38:18.427Z,0.00
2019-06-20T00:39:18.411Z,0.00
2019-06-20T00:40:18.420Z,0.00
2019-06-20T00:41:18.368Z,0.00
2019-06-20T00:42:18.367Z,0.00
2019-06-20T00:43:18.599Z,0.00
2019-06-20T00:44:18.633Z,0.00
2019-06-20T00:45:18.327Z,0.00
2019-06-20T00:46:18.308Z,0.00
2019-06-20T00:47:18.298Z,0.00
2019-06-20T00:48:18.284Z,0.00
2019-06-20T00:49:18.281Z,0.00
2019-06-20T00:50:18.292Z,0.00
2019-06-20T00:51:18.253Z,0.00
2019-06-20T00:52:18.241Z,0.00
2019-06-20T00:53:18.231Z,0.00
2019-06-20T00:54:18.228Z,0.00
2019-06-20T00:55:18.213Z,0.00
2019-06-20T00:56:18.232Z,0.00
2019-06-20T00:57:18.185Z,0.00
2019-06-20T00:58:18.171Z,0.00
2019-06-20T00:59:18.165Z,0.00
2019-06-20T01:00:18.154Z,0.00
2019-06-20T01:01:18.176Z,0.00
2019-06-20T01:02:18.172Z,0.00
2019-06-20T01:03:18.118Z,0.00
2019-06-20T01:04:18.108Z,0.00
2019-06-20T01:05:18.103Z,0.00
2019-06-20T01:06:18.139Z,0.00
2019-06-20T01:07:18.074Z,0.00
2019-06-20T01:08:18.112Z,0.00
2019-06-20T01:09:18.054Z,0.00
2019-06-20T01:10:18.066Z,0.00
2019-06-20T01:11:18.030Z,0.00
2019-06-20T01:12:18.060Z,0.00
2019-06-20T01:13:32.652Z,0.00
2019-06-20T01:14:18.997Z,0.00
2019-06-20T01:15:17.988Z,0.00
2019-06-20T01:16:18.006Z,0.00
2019-06-20T01:17:17.967Z,0.00
2019-06-20T01:18:18.144Z,0.00
2019-06-20T01:19:17.963Z,0.00
2019-06-20T01:20:17.938Z,0.00
2019-06-20T01:21:17.924Z,0.00
2019-06-20T01:22:17.917Z,0.00
2019-06-20T01:23:32.749Z,0.00
2019-06-20T01:24:17.901Z,0.00
2019-06-20T01:25:17.877Z,0.00
2019-06-20T01:26:17.865Z,0.00
2019-06-20T01:27:17.855Z,0.00
2019-06-20T01:28:17.846Z,0.00
2019-06-20T01:29:17.845Z,0.00
2019-06-20T01:30:17.839Z,0.00
2019-06-20T01:31:17.808Z,0.00
2019-06-20T01:32:17.806Z,0.00
2019-06-20T01:33:17.788Z,0.00
2019-06-20T01:34:17.779Z,0.00
2019-06-20T01:35:17.784Z,0.00
2019-06-20T01:36:17.756Z,0.00
2019-06-20T01:37:17.744Z,0.00
2019-06-20T01:38:17.754Z,0.00
2019-06-20T01:39:17.729Z,0.00
2019-06-20T01:40:17.729Z,0.00
2019-06-20T01:41:17.720Z,0.00
2019-06-20T01:42:17.695Z,0.00
2019-06-20T01:43:17.677Z,0.00
2019-06-20T01:44:17.668Z,0.00
2019-06-20T01:45:17.656Z,0.00
2019-06-20T01:46:17.647Z,0.00
2019-06-20T01:47:19.393Z,0.00
2019-06-20T01:48:17.623Z,0.00
2019-06-20T01:49:17.657Z,0.00
2019-06-20T01:50:17.602Z,0.00
2019-06-20T01:51:17.595Z,0.00
2019-06-20T01:52:17.597Z,0.00
2019-06-20T01:53:17.573Z,0.00
2019-06-20T01:54:17.561Z,0.00
2019-06-20T01:55:17.553Z,0.00
2019-06-20T01:56:17.538Z,0.00
2019-06-20T01:57:17.524Z,0.00
2019-06-20T01:58:17.576Z,4.00
2019-06-20T01:59:17.502Z,4.00
2019-06-20T02:00:17.491Z,4.00
2019-06-20T02:01:17.480Z,4.00
2019-06-20T02:02:17.475Z,4.00
2019-06-20T02:03:17.475Z,0.00
2019-06-20T02:04:17.448Z,4.00
2019-06-20T02:05:17.454Z,4.00
2019-06-20T02:06:17.424Z,4.00
2019-06-20T02:07:17.425Z,8.00
2019-06-20T02:08:17.406Z,4.00
2019-06-20T02:09:17.605Z,8.00
2019-06-20T02:10:17.380Z,8.00
2019-06-20T02:11:17.371Z,8.00
2019-06-20T02:12:17.357Z,12.00
2019-06-20T02:13:17.356Z,12.00
2019-06-20T02:14:17.341Z,12.00
2019-06-20T02:15:17.347Z,12.00
2019-06-20T02:16:17.315Z,16.00
2019-06-20T02:17:17.307Z,20.00
2019-06-20T02:18:17.292Z,16.00
2019-06-20T02:19:17.279Z,20.00
2019-06-20T02:20:17.283Z,24.00
2019-06-20T02:21:17.259Z,28.00
2019-06-20T02:22:17.251Z,28.00
2019-06-20T02:23:17.237Z,32.00
2019-06-20T02:24:17.231Z,36.00
2019-06-20T02:25:17.224Z,36.00
2019-06-20T02:26:17.246Z,44.00
2019-06-20T02:27:17.194Z,48.00
2019-06-20T02:28:17.176Z,56.00
2019-06-20T02:29:17.166Z,64.00
2019-06-20T02:30:17.173Z,68.00
2019-06-20T02:31:17.164Z,76.00
2019-06-20T02:32:17.160Z,84.00
2019-06-20T02:33:17.133Z,92.00
2019-06-20T02:34:17.116Z,100.00
2019-06-20T02:35:17.100Z,116.00
2019-06-20T02:36:17.093Z,124.00
2019-06-20T02:37:17.093Z,136.00
2019-06-20T02:38:17.065Z,152.00
2019-06-20T02:39:17.071Z,164.00
2019-06-20T02:40:17.064Z,180.00
2019-06-20T02:41:17.033Z,196.00
2019-06-20T02:42:17.024Z,208.00
2019-06-20T02:43:17.011Z,228.00
2019-06-20T02:44:29.042Z,244.00
2019-06-20T02:45:17.988Z,260.00
2019-06-20T02:46:16.990Z,276.00
2019-06-20T02:47:16.988Z,300.00
2019-06-20T02:48:16.971Z,316.00
2019-06-20T02:49:16.944Z,332.00
2019-06-20T02:50:16.936Z,352.00
2019-06-20T02:51:16.936Z,372.00
2019-06-20T02:52:16.909Z,396.00
2019-06-20T02:53:16.896Z,412.00
2019-06-20T02:54:40.771Z,436.00
2019-06-20T02:55:16.895Z,456.00
2019-06-20T02:56:16.863Z,480.00
2019-06-20T02:57:16.860Z,504.00
2019-06-20T02:58:16.837Z,532.00
2019-06-20T02:59:16.834Z,556.00
2019-06-20T03:00:16.839Z,580.00
2019-06-20T03:01:16.806Z,608.00
2019-06-20T03:02:16.813Z,636.00
2019-06-20T03:03:16.796Z,660.00
2019-06-20T03:04:16.782Z,684.00
2019-06-20T03:05:16.760Z,716.00
2019-06-20T03:06:16.754Z,748.00
2019-06-20T03:07:16.741Z,776.00
2019-06-20T03:08:16.743Z,804.00
2019-06-20T03:09:16.723Z,832.00
2019-06-20T03:10:16.712Z,860.00
2019-06-20T03:11:16.700Z,884.00
2019-06-20T03:12:16.683Z,912.00
2019-06-20T03:13:16.691Z,936.00
2019-06-20T03:14:16.672Z,960.00
2019-06-20T03:15:16.652Z,988.00
2019-06-20T03:16:16.641Z,1024.00
2019-06-20T03:17:16.640Z,1068.00
2019-06-20T03:18:16.619Z,1116.00
2019-06-20T03:19:16.802Z,1188.00
2019-06-20T03:20:16.593Z,1284.00
2019-06-20T03:21:16.603Z,1392.00
2019-06-20T03:22:16.573Z,1480.00
2019-06-20T03:23:16.567Z,1564.00
2019-06-20T03:24:16.564Z,1588.00
2019-06-20T03:25:16.538Z,1576.00
2019-06-20T03:26:16.526Z,1548.00
2019-06-20T03:27:16.515Z,1548.00
2019-06-20T03:28:16.507Z,1564.00
2019-06-20T03:29:16.497Z,1564.00
2019-06-20T03:30:16.520Z,1528.00
2019-06-20T03:31:16.507Z,1452.00
2019-06-20T03:32:16.468Z,1400.00
2019-06-20T03:33:16.457Z,1372.00
2019-06-20T03:34:16.456Z,1352.00
2019-06-20T03:35:16.426Z,1352.00
2019-06-20T03:36:16.448Z,1376.00
2019-06-20T03:37:16.400Z,1416.00
2019-06-20T03:38:16.392Z,1452.00
2019-06-20T03:39:16.379Z,1492.00
2019-06-20T03:40:16.375Z,1524.00
2019-06-20T03:41:16.355Z,1568.00
2019-06-20T03:42:17.368Z,1612.00
2019-06-20T03:43:16.343Z,1652.00
2019-06-20T03:44:16.326Z,1700.00
2019-06-20T03:45:16.315Z,1740.00
2019-06-20T03:46:16.299Z,1796.00
2019-06-20T03:47:16.297Z,1860.00
2019-06-20T03:48:16.316Z,1928.00
2019-06-20T03:49:16.264Z,2008.00
2019-06-20T03:50:16.251Z,2096.00
2019-06-20T03:51:16.248Z,2180.00
2019-06-20T03:52:16.233Z,2240.00
2019-06-20T03:53:16.221Z,2296.00
2019-06-20T03:54:16.224Z,2352.00
2019-06-20T03:55:16.196Z,2412.00
2019-06-20T03:56:16.190Z,2476.00
2019-06-20T03:57:16.175Z,2540.00
2019-06-20T03:58:16.162Z,2648.00
2019-06-20T03:59:16.173Z,2700.00
2019-06-20T04:00:16.146Z,2764.00
2019-06-20T04:01:16.132Z,2820.00
2019-06-20T04:02:16.129Z,2876.00
2019-06-20T04:03:16.108Z,2932.00
2019-06-20T04:04:16.094Z,2976.00
2019-06-20T04:05:17.030Z,3020.00
2019-06-20T04:06:16.075Z,3052.00
2019-06-20T04:07:16.065Z,3084.00
2019-06-20T04:08:16.049Z,3108.00
2019-06-20T04:09:16.147Z,3140.00
2019-06-20T04:10:16.056Z,3160.00
2019-06-20T04:11:16.093Z,3188.00
2019-06-20T04:12:16.021Z,3232.00
2019-06-20T04:13:15.994Z,3280.00
2019-06-20T04:14:15.997Z,3332.00
2019-06-20T04:15:19.316Z,3392.00
2019-06-20T04:16:17.298Z,3448.00
2019-06-20T04:17:15.959Z,3496.00
2019-06-20T04:18:15.937Z,3540.00
2019-06-20T04:19:15.926Z,3572.00
2019-06-20T04:20:15.918Z,3596.00
2019-06-20T04:21:15.907Z,3624.00
2019-06-20T04:22:15.916Z,3656.00
2019-06-20T04:23:15.886Z,3672.00
2019-06-20T04:24:15.869Z,3692.00
2019-06-20T04:25:15.857Z,3716.00
2019-06-20T04:26:15.849Z,3740.00
2019-06-20T04:27:15.848Z,3760.00
2019-06-20T04:28:15.835Z,3824.00
2019-06-20T04:29:15.838Z,3864.00
2019-06-20T04:30:15.831Z,3912.00
2019-06-20T04:31:15.794Z,3952.00
2019-06-20T04:32:15.791Z,4004.00
2019-06-20T04:33:15.765Z,4052.00
2019-06-20T04:34:15.768Z,4108.00
2019-06-20T04:35:15.744Z,4164.00
2019-06-20T04:36:15.734Z,4228.00
2019-06-20T04:37:15.755Z,4304.00
2019-06-20T04:38:15.712Z,4372.00
2019-06-20T04:39:19.587Z,4436.00
2019-06-20T04:40:15.707Z,4488.00
2019-06-20T04:41:15.688Z,4552.00
2019-06-20T04:42:18.646Z,4632.00
2019-06-20T04:43:15.684Z,4720.00
2019-06-20T04:44:15.663Z,4812.00
2019-06-20T04:45:15.633Z,4908.00
2019-06-20T04:46:15.618Z,5020.00
2019-06-20T04:47:15.608Z,5132.00
2019-06-20T04:48:15.602Z,5252.00
2019-06-20T04:49:15.584Z,5372.00
2019-06-20T04:50:15.821Z,5516.00
2019-06-20T04:51:15.564Z,5664.00
2019-06-20T04:52:15.563Z,5836.00
2019-06-20T04:53:15.541Z,6032.00
2019-06-20T04:54:15.533Z,6304.00
2019-06-20T04:55:15.551Z,6760.00
2019-06-20T04:56:15.524Z,7520.00
2019-06-20T04:57:15.501Z,8388.00
2019-06-20T04:58:15.498Z,8964.00
2019-06-20T04:59:15.476Z,9440.00
2019-06-20T05:00:15.462Z,9856.00
2019-06-20T05:01:15.488Z,10168.00
2019-06-20T05:02:15.441Z,10356.00
2019-06-20T05:03:15.431Z,10052.00
2019-06-20T05:04:15.419Z,9448.00
2019-06-20T05:05:15.421Z,9116.00
2019-06-20T05:06:15.398Z,9036.00
2019-06-20T05:07:15.411Z,9128.00
2019-06-20T05:08:15.461Z,9228.00
2019-06-20T05:09:15.374Z,9324.00
2019-06-20T05:10:15.389Z,9440.00
2019-06-20T05:11:15.359Z,9548.00
2019-06-20T05:12:15.354Z,9680.00
2019-06-20T05:13:15.322Z,9924.00
2019-06-20T05:14:15.310Z,10268.00
2019-06-20T05:15:15.305Z,10608.00
2019-06-20T05:16:15.286Z,10852.00
2019-06-20T05:17:15.750Z,11268.00
2019-06-20T05:18:15.340Z,11332.00
2019-06-20T05:19:15.256Z,10924.00
2019-06-20T05:20:15.254Z,10520.00
2019-06-20T05:21:15.234Z,10512.00
2019-06-20T05:22:15.223Z,10708.00
2019-06-20T05:23:15.210Z,11096.00
2019-06-20T05:24:15.213Z,11516.00
2019-06-20T05:25:15.189Z,11828.00
2019-06-20T05:26:15.180Z,11864.00
2019-06-20T05:27:15.167Z,11580.00
2019-06-20T05:28:15.155Z,11436.00
2019-06-20T05:29:15.184Z,11508.00
2019-06-20T05:30:15.139Z,11676.00
2019-06-20T05:31:15.180Z,12164.00
2019-06-20T05:32:15.123Z,13136.00
2019-06-20T05:33:15.110Z,14220.00
2019-06-20T05:34:15.099Z,13708.00
2019-06-20T05:35:15.101Z,12976.00
2019-06-20T05:36:15.089Z,13024.00
2019-06-20T05:37:15.072Z,13092.00
2019-06-20T05:38:15.048Z,13004.00
2019-06-20T05:39:15.038Z,13196.00
2019-06-20T05:40:15.071Z,13352.00
2019-06-20T05:41:15.299Z,13708.00
2019-06-20T05:42:15.002Z,13968.00
2019-06-20T05:43:14.991Z,13740.00
2019-06-20T05:44:15.011Z,13084.00
2019-06-20T05:45:14.972Z,12388.00
2019-06-20T05:46:14.962Z,11880.00
2019-06-20T05:47:15.024Z,11596.00
2019-06-20T05:48:14.939Z,11544.00
2019-06-20T05:49:14.960Z,11680.00
2019-06-20T05:50:14.921Z,12260.00
2019-06-20T05:51:14.904Z,12644.00
2019-06-20T05:52:14.909Z,12748.00
2019-06-20T05:53:14.887Z,12636.00
2019-06-20T05:54:14.872Z,11888.00
2019-06-20T05:55:15.826Z,10524.00
2019-06-20T05:56:14.851Z,9564.00
2019-06-20T05:57:14.843Z,9532.00
2019-06-20T05:58:15.492Z,9460.00
2019-06-20T05:59:14.823Z,9396.00
2019-06-20T06:00:14.827Z,9496.00
2019-06-20T06:01:14.802Z,9620.00
2019-06-20T06:02:14.788Z,9656.00
2019-06-20T06:03:14.778Z,9532.00
2019-06-20T06:04:14.856Z,9432.00
2019-06-20T06:05:14.759Z,9456.00
2019-06-20T06:06:14.742Z,9464.00
2019-06-20T06:07:14.736Z,9436.00
2019-06-20T06:08:14.720Z,9552.00
2019-06-20T06:09:14.712Z,9972.00
2019-06-20T06:10:14.860Z,10780.00
2019-06-20T06:11:14.709Z,11740.00
2019-06-20T06:12:14.688Z,12180.00
2019-06-20T06:13:14.674Z,12080.00
2019-06-20T06:14:14.660Z,11220.00
2019-06-20T06:15:14.693Z,10044.00
2019-06-20T06:16:25.580Z,9436.00
2019-06-20T06:17:15.633Z,8708.00
2019-06-20T06:18:14.622Z,7916.00
2019-06-20T06:19:14.619Z,7052.00
2019-06-20T06:20:14.590Z,6136.00
2019-06-20T06:21:14.713Z,5276.00
2019-06-20T06:22:14.586Z,4348.00
2019-06-20T06:23:14.564Z,3564.00
2019-06-20T06:24:14.552Z,3004.00
2019-06-20T06:25:14.554Z,2736.00
2019-06-20T06:26:14.535Z,2636.00
2019-06-20T06:27:14.540Z,2624.00
2019-06-20T06:28:14.510Z,2632.00
2019-06-20T06:29:14.509Z,2664.00
2019-06-20T06:30:14.553Z,2708.00
2019-06-20T06:31:14.481Z,2768.00
2019-06-20T06:32:14.526Z,2840.00
2019-06-20T06:33:14.475Z,2872.00
2019-06-20T06:34:14.466Z,3044.00
2019-06-20T06:35:14.431Z,3124.00
2019-06-20T06:36:14.423Z,3128.00
2019-06-20T06:37:14.410Z,3272.00
2019-06-20T06:38:14.417Z,3448.00
2019-06-20T06:39:14.394Z,3660.00
2019-06-20T06:40:14.390Z,3908.00
2019-06-20T06:41:14.410Z,4104.00
2019-06-20T06:42:14.358Z,4840.00
2019-06-20T06:43:14.368Z,5540.00
2019-06-20T06:44:14.334Z,6176.00
2019-06-20T06:45:14.317Z,6988.00
2019-06-20T06:46:14.327Z,8092.00
2019-06-20T06:47:14.326Z,9316.00
2019-06-20T06:48:14.284Z,10420.00
2019-06-20T06:49:14.292Z,11260.00
2019-06-20T06:50:14.262Z,11940.00
2019-06-20T06:51:14.251Z,12428.00
2019-06-20T06:52:14.260Z,12996.00
2019-06-20T06:53:14.236Z,13632.00
2019-06-20T06:54:14.260Z,14044.00
2019-06-20T06:55:14.207Z,14684.00
2019-06-20T06:56:14.225Z,15500.00
2019-06-20T06:57:14.200Z,15224.00
2019-06-20T06:58:14.187Z,13992.00
2019-06-20T06:59:14.159Z,12856.00
2019-06-20T07:00:14.168Z,12788.00
2019-06-20T07:01:14.202Z,12784.00
2019-06-20T07:02:14.126Z,12500.00
2019-06-20T07:03:14.117Z,11700.00
2019-06-20T07:04:14.113Z,10896.00
2019-06-20T07:05:14.092Z,9872.00
2019-06-20T07:06:14.143Z,9124.00
2019-06-20T07:07:14.081Z,9432.00
2019-06-20T07:08:14.067Z,11000.00
2019-06-20T07:09:14.064Z,12236.00
2019-06-20T07:10:14.056Z,13552.00
2019-06-20T07:11:14.053Z,15052.00
2019-06-20T07:12:14.020Z,15968.00
2019-06-20T07:13:14.036Z,17888.00
2019-06-20T07:14:14.005Z,19328.00
2019-06-20T07:15:13.987Z,20448.00
2019-06-20T07:16:13.971Z,21184.00
2019-06-20T07:17:13.964Z,21824.00
2019-06-20T07:18:13.956Z,21920.00
2019-06-20T07:19:13.961Z,21536.00
2019-06-20T07:20:15.226Z,21248.00
2019-06-20T07:21:13.922Z,20800.00
2019-06-20T07:22:13.903Z,19520.00
2019-06-20T07:23:13.901Z,17312.00
2019-06-20T07:24:13.922Z,15764.00
2019-06-20T07:25:13.886Z,14880.00
2019-06-20T07:26:13.870Z,13888.00
2019-06-20T07:27:13.849Z,13284.00
2019-06-20T07:28:13.836Z,13348.00
2019-06-20T07:29:13.862Z,13912.00
2019-06-20T07:30:13.826Z,14748.00
2019-06-20T07:31:13.823Z,15988.00
2019-06-20T07:32:13.809Z,18112.00
2019-06-20T07:33:13.783Z,18656.00
2019-06-20T07:34:13.807Z,22400.00
2019-06-20T07:35:13.782Z,19104.00
2019-06-20T07:36:13.769Z,18432.00
2019-06-20T07:37:13.749Z,16068.00
2019-06-20T07:38:13.731Z,14312.00
2019-06-20T07:39:13.720Z,16576.00
2019-06-20T07:40:13.723Z,10260.00
2019-06-20T07:41:13.711Z,8252.00
2019-06-20T07:42:13.688Z,7488.00
2019-06-20T07:43:13.683Z,6776.00
2019-06-20T07:44:13.695Z,6036.00
2019-06-20T07:45:13.659Z,5468.00
2019-06-20T07:46:13.643Z,5132.00
2019-06-20T07:47:17.654Z,4968.00
2019-06-20T07:48:13.625Z,5088.00
2019-06-20T07:49:13.664Z,5420.00
2019-06-20T07:50:13.598Z,5496.00
2019-06-20T07:51:13.592Z,5452.00
2019-06-20T07:52:13.602Z,5312.00
2019-06-20T07:53:13.577Z,4708.00
2019-06-20T07:54:13.560Z,3912.00
2019-06-20T07:55:13.562Z,3736.00
2019-06-20T07:56:13.530Z,4092.00
2019-06-20T07:57:13.522Z,4764.00
2019-06-20T07:58:13.527Z,5496.00
2019-06-20T07:59:13.502Z,6400.00
2019-06-20T08:00:13.492Z,7096.00
2019-06-20T08:01:13.472Z,7420.00
2019-06-20T08:02:13.474Z,7812.00
2019-06-20T08:03:13.466Z,8388.00
2019-06-20T08:04:13.465Z,9016.00
2019-06-20T08:05:13.436Z,9944.00
2019-06-20T08:06:13.423Z,11376.00
2019-06-20T08:07:13.417Z,13292.00
2019-06-20T08:08:13.403Z,14388.00
2019-06-20T08:09:13.428Z,15464.00
2019-06-20T08:10:13.396Z,15752.00
2019-06-20T08:11:13.382Z,14228.00
2019-06-20T08:12:13.355Z,13204.00
2019-06-20T08:13:13.351Z,13100.00
2019-06-20T08:14:13.346Z,13460.00
2019-06-20T08:15:15.697Z,14172.00
2019-06-20T08:16:13.322Z,15144.00
2019-06-20T08:17:13.311Z,15932.00
2019-06-20T08:18:13.287Z,16576.00
2019-06-20T08:19:13.279Z,17312.00
2019-06-20T08:20:13.275Z,18240.00
2019-06-20T08:21:13.276Z,20384.00
2019-06-20T08:22:13.243Z,22144.00
2019-06-20T08:23:13.238Z,27744.00
2019-06-20T08:24:13.220Z,39104.00
2019-06-20T08:25:13.220Z,38272.00
2019-06-20T08:26:13.213Z,26496.00
2019-06-20T08:27:14.935Z,27584.00
2019-06-20T08:28:13.190Z,32160.00
2019-06-20T08:29:20.753Z,32928.00
2019-06-20T08:30:14.165Z,38048.00
2019-06-20T08:31:13.175Z,33152.00
2019-06-20T08:32:13.136Z,31456.00
2019-06-20T08:33:13.126Z,25248.00
2019-06-20T08:34:13.127Z,21472.00
2019-06-20T08:35:13.112Z,22144.00
2019-06-20T08:36:13.094Z,25152.00
2019-06-20T08:37:13.094Z,33600.00
2019-06-20T08:38:13.071Z,33728.00
2019-06-20T08:39:13.056Z,31488.00
2019-06-20T08:40:13.052Z,30880.00
2019-06-20T08:41:13.059Z,34016.00
2019-06-20T08:42:13.067Z,109472.00
2019-06-20T08:43:13.015Z,92800.00
2019-06-20T08:44:13.011Z,97792.00
2019-06-20T08:45:12.993Z,106336.00
2019-06-20T08:46:12.983Z,112576.00
2019-06-20T08:47:12.971Z,70304.00
2019-06-20T08:48:12.991Z,33184.00
2019-06-20T08:49:12.955Z,32640.00
2019-06-20T08:50:12.933Z,105440.00
2019-06-20T08:51:14.725Z,87136.00
2019-06-20T08:52:12.913Z,70656.00
2019-06-20T08:53:12.946Z,42592.00
2019-06-20T08:54:12.909Z,41984.00
2019-06-20T08:55:12.891Z,35072.00
2019-06-20T08:56:12.876Z,31968.00
2019-06-20T08:57:12.867Z,29856.00
2019-06-20T08:58:12.865Z,30176.00
2019-06-20T08:59:23.999Z,29088.00
2019-06-20T09:00:13.861Z,30208.00
2019-06-20T09:01:12.839Z,31008.00
2019-06-20T09:02:12.908Z,95808.00
2019-06-20T09:03:12.808Z,32416.00
2019-06-20T09:04:12.835Z,28416.00
2019-06-20T09:05:12.801Z,26784.00
2019-06-20T09:06:12.779Z,26816.00
2019-06-20T09:07:12.770Z,24640.00
2019-06-20T09:08:12.748Z,23200.00
2019-06-20T09:09:12.745Z,21184.00
2019-06-20T09:10:12.771Z,19936.00
2019-06-20T09:11:12.728Z,19328.00
2019-06-20T09:12:12.729Z,17824.00
2019-06-20T09:13:12.701Z,16448.00
2019-06-20T09:14:12.689Z,15680.00
2019-06-20T09:15:12.699Z,16736.00
2019-06-20T09:16:24.247Z,18432.00
2019-06-20T09:17:13.657Z,17248.00
2019-06-20T09:18:12.664Z,14632.00
2019-06-20T09:19:12.634Z,12252.00
2019-06-20T09:20:12.629Z,11492.00
2019-06-20T09:21:12.633Z,11884.00
2019-06-20T09:22:12.618Z,13024.00
2019-06-20T09:23:12.606Z,14364.00
2019-06-20T09:24:12.575Z,13948.00
2019-06-20T09:25:12.576Z,12236.00
2019-06-20T09:26:17.947Z,12240.00
2019-06-20T09:27:12.551Z,13804.00
2019-06-20T09:28:12.560Z,15236.00
2019-06-20T09:29:12.532Z,16672.00
2019-06-20T09:30:12.521Z,19296.00
2019-06-20T09:31:12.496Z,18560.00
2019-06-20T09:32:12.510Z,15824.00
2019-06-20T09:33:12.482Z,14652.00
2019-06-20T09:34:12.495Z,14848.00
2019-06-20T09:35:12.475Z,15092.00
2019-06-20T09:36:12.439Z,14104.00
2019-06-20T09:37:12.454Z,14264.00
2019-06-20T09:38:12.437Z,15148.00
2019-06-20T09:39:12.416Z,15456.00
2019-06-20T09:40:12.413Z,15460.00
2019-06-20T09:41:12.390Z,15028.00
2019-06-20T09:42:12.427Z,13972.00
2019-06-20T09:43:26.550Z,13760.00
2019-06-20T09:44:13.379Z,12532.00
2019-06-20T09:45:12.368Z,12320.00
2019-06-20T09:46:12.333Z,13184.00
2019-06-20T09:47:12.322Z,14932.00
2019-06-20T09:48:12.320Z,16992.00
2019-06-20T09:49:12.319Z,18400.00
2019-06-20T09:50:12.292Z,17984.00
2019-06-20T09:51:12.287Z,16864.00
2019-06-20T09:52:12.362Z,15352.00
2019-06-20T09:53:12.260Z,14976.00
2019-06-20T09:54:12.255Z,17664.00
2019-06-20T09:55:12.250Z,24736.00
2019-06-20T09:56:12.231Z,27136.00
2019-06-20T09:57:12.212Z,33504.00
2019-06-20T09:58:12.202Z,32512.00
2019-06-20T09:59:26.831Z,27008.00
2019-06-20T10:00:13.230Z,28160.00
2019-06-20T10:01:12.167Z,22080.00
2019-06-20T10:02:12.158Z,20544.00
2019-06-20T10:03:12.157Z,22848.00
2019-06-20T10:04:12.139Z,79744.00
2019-06-20T10:05:12.142Z,78496.00
2019-06-20T10:06:14.407Z,32416.00
2019-06-20T10:07:12.102Z,50016.00
2019-06-20T10:08:12.096Z,33056.00
2019-06-20T10:09:12.080Z,32608.00
2019-06-20T10:10:12.069Z,33728.00
2019-06-20T10:11:12.122Z,37536.00
2019-06-20T10:12:12.050Z,42880.00
2019-06-20T10:13:12.052Z,162112.00
2019-06-20T10:14:12.035Z,54784.00
2019-06-20T10:15:12.016Z,48832.00
2019-06-20T10:16:12.012Z,66080.00
2019-06-20T10:17:12.016Z,48288.00
2019-06-20T10:18:11.980Z,57664.00
2019-06-20T10:19:13.427Z,41472.00
2019-06-20T10:20:11.972Z,42080.00
2019-06-20T10:21:11.967Z,116448.00
2019-06-20T10:22:11.960Z,65280.00
2019-06-20T10:23:11.948Z,45184.00
2019-06-20T10:24:11.923Z,77088.00
2019-06-20T10:25:11.921Z,70656.00
2019-06-20T10:26:11.904Z,119264.00
2019-06-20T10:27:11.890Z,107104.00
2019-06-20T10:28:11.887Z,41120.00
2019-06-20T10:29:11.920Z,128160.00
2019-06-20T10:30:14.555Z,124992.00
2019-06-20T10:31:11.852Z,125056.00
2019-06-20T10:32:11.847Z,84768.00
2019-06-20T10:33:11.825Z,119872.00
2019-06-20T10:34:11.816Z,118112.00
2019-06-20T10:35:11.828Z,109856.00
2019-06-20T10:36:11.807Z,111168.00
2019-06-20T10:37:11.794Z,110400.00
2019-06-20T10:38:11.781Z,104640.00
2019-06-20T10:39:11.778Z,104672.00
2019-06-20T10:40:11.790Z,106720.00
2019-06-20T10:41:11.750Z,113312.00
2019-06-20T10:42:11.753Z,124096.00
2019-06-20T10:43:11.744Z,122912.00
2019-06-20T10:44:11.766Z,128800.00
2019-06-20T10:45:11.782Z,127648.00
2019-06-20T10:46:11.704Z,128512.00
2019-06-20T10:47:11.708Z,126112.00
2019-06-20T10:48:11.690Z,128544.00
2019-06-20T10:49:11.695Z,127744.00
2019-06-20T10:50:11.667Z,124256.00
2019-06-20T10:51:11.665Z,124480.00
2019-06-20T10:52:11.644Z,132832.00
2019-06-20T10:53:11.663Z,138848.00
2019-06-20T10:54:11.669Z,89408.00
2019-06-20T10:55:11.650Z,37760.00
2019-06-20T10:56:11.630Z,33184.00
2019-06-20T10:57:11.605Z,45600.00
2019-06-20T10:58:11.597Z,34016.00
2019-06-20T10:59:11.607Z,35552.00
2019-06-20T11:00:11.584Z,45536.00
2019-06-20T11:01:11.614Z,46784.00
2019-06-20T11:02:11.591Z,40928.00
2019-06-20T11:03:11.560Z,48160.00
2019-06-20T11:04:11.544Z,37216.00
2019-06-20T11:05:11.551Z,38880.00
2019-06-20T11:06:11.538Z,45312.00
2019-06-20T11:07:11.530Z,42432.00
2019-06-20T11:08:11.513Z,118816.00
2019-06-20T11:09:11.544Z,50048.00
2019-06-20T11:10:11.486Z,65664.00
2019-06-20T11:11:13.493Z,91488.00
2019-06-20T11:12:11.476Z,78496.00
2019-06-20T11:13:11.454Z,80352.00
2019-06-20T11:14:11.443Z,96352.00
2019-06-20T11:15:11.431Z,79008.00
2019-06-20T11:16:11.417Z,63392.00
2019-06-20T11:17:11.425Z,80928.00
2019-06-20T11:18:11.417Z,108160.00
2019-06-20T11:19:11.447Z,111104.00
2019-06-20T11:20:11.418Z,123808.00
2019-06-20T11:21:11.377Z,114304.00
2019-06-20T11:22:11.393Z,114304.00
2019-06-20T11:23:11.393Z,120288.00
2019-06-20T11:24:11.350Z,114368.00
2019-06-20T11:25:11.345Z,119936.00
2019-06-20T11:26:11.338Z,121760.00
2019-06-20T11:27:32.324Z,111424.00
2019-06-20T11:28:11.320Z,112256.00
2019-06-20T11:29:11.313Z,106496.00
2019-06-20T11:30:11.288Z,105024.00
2019-06-20T11:31:11.305Z,97344.00
2019-06-20T11:32:11.267Z,70656.00
2019-06-20T11:33:11.255Z,53824.00
2019-06-20T11:34:11.257Z,117440.00
2019-06-20T11:35:11.265Z,122112.00
2019-06-20T11:36:11.225Z,120608.00
2019-06-20T11:37:11.280Z,118080.00
2019-06-20T11:38:11.241Z,119840.00
2019-06-20T11:39:11.209Z,123328.00
2019-06-20T11:40:11.291Z,113568.00
2019-06-20T11:41:11.194Z,106720.00
2019-06-20T11:42:11.193Z,98016.00
2019-06-20T11:43:11.163Z,94304.00
2019-06-20T11:44:11.161Z,41760.00
2019-06-20T11:45:11.148Z,33664.00
2019-06-20T11:46:11.232Z,47520.00
2019-06-20T11:47:11.134Z,30912.00
2019-06-20T11:48:11.150Z,30848.00
2019-06-20T11:49:11.120Z,112512.00
2019-06-20T11:50:11.108Z,110816.00
2019-06-20T11:51:11.139Z,115008.00
2019-06-20T11:52:11.088Z,112256.00
2019-06-20T11:53:11.075Z,106016.00
2019-06-20T11:54:11.086Z,115648.00
2019-06-20T11:55:11.061Z,119520.00
2019-06-20T11:56:11.078Z,122400.00
2019-06-20T11:57:11.039Z,98592.00
2019-06-20T11:58:11.041Z,80832.00
2019-06-20T11:59:11.014Z,45792.00
2019-06-20T12:00:11.025Z,43328.00
2019-06-20T12:01:11.022Z,67904.00
2019-06-20T12:02:11.008Z,75808.00
2019-06-20T12:03:10.996Z,59136.00
2019-06-20T12:04:11.005Z,50592.00
2019-06-20T12:05:10.964Z,60128.00
2019-06-20T12:06:10.959Z,72736.00
2019-06-20T12:07:10.948Z,30752.00
2019-06-20T12:08:10.961Z,29920.00